Tropical Cyclones
[Index]
Season 2017-2018 Tropical Cyclone FLAMBOYAN Track Map
Season 2017-2018 Summaries: [BoM-AU] [JTWC-AU] [JTWC-SIO] [JTWC-SPAC] [JTWC-SH]
<<- Previous TC | JTWC 2017-2018 Season | Next TC ->>

click for intensity scale information  Lat/long Grid: Show Hide

 Date Labels: Show Hide

Joint Typhoon Warning Centre Cyclone Data

Name: FLAMBOYAN

27 Apr 2018 12:00 UTC to 02 May 2018 00:00 UTC

    date/time    lat    long     hPa   cat  kts
2018-04-27 12    7.2    96.7    1006         25          
2018-04-27 18    7.8    95.3    1006         25          
2018-04-28 00    8.3    94.0    1002         30          
2018-04-28 06    8.9    92.5    1002         35          
2018-04-28 12    9.6    91.2    1000    1    40          
2018-04-28 18   10.2    90.2     998    1    45          
2018-04-29 00   11.2    88.9     995    1    50          
2018-04-29 06   12.0    87.6     992    2    55          
2018-04-29 06   12.0    87.6     992    2    55          
2018-04-29 12   12.7    86.4     992    2    55          
2018-04-29 12   12.7    86.4     992    2    55          
2018-04-29 18   13.5    85.5     992    2    55          
2018-04-29 18   13.5    85.5     992    2    55          
2018-04-30 00   14.2    84.9     989    2    60          
2018-04-30 00   14.2    84.9     989    2    60          
2018-04-30 06   15.0    84.6     985    2    65          
2018-04-30 06   15.0    84.6     985    2    65          
2018-04-30 06   15.0    84.6     985    2    65          
2018-04-30 12   15.7    84.4     982    2    70          
2018-04-30 12   15.7    84.4     982    2    70          
2018-04-30 12   15.7    84.4     982    2    70          
2018-04-30 18   16.4    84.0     985    2    65          
2018-04-30 18   16.4    84.0     985    2    65          
2018-04-30 18   16.4    84.0     985    2    65          
2018-05-01 00   17.0    83.7     988    2    60          
2018-05-01 00   17.0    83.7     988    2    60          
2018-05-01 06   17.2    83.7     991    2    55          
2018-05-01 06   17.2    83.7     991    2    55          
2018-05-01 12   17.6    83.9     996    1    45          
2018-05-01 18   18.2    84.2     999    1    40          
2018-05-02 00   18.7    84.4     998    1    40          
Winds are 1-min average.

Tropical cyclone tracks developed by Michael Bath using data from the Joint Typhoon Warning Centre Best Tracks and Google Maps.


Document: tropical_cyclone_flamboyan.htm
Updated: 17 June 2020
[Australian Severe Weather index] [Copyright Notice] [Email Contacts] [Search This Site] [Privacy Policy]


Main Index Home Page Stock Weather Photos Extreme Storms Discussion Storm News and Storm Chasing Reports Tropical Cyclones / Hurricanes / Typhoons Weather Data and Links Wild Fires / Bushfires Weather Observation Techniques Weather Picture Catalogue Tornado Pictures and Reports Stock Video Footage and DVDs for sale